Humidity-temperature Sensor

Selected Measurement Type: Relative Humidity

 
Relative Humidity [%]     6 entries per hour
Showing data from 7/1/2019 (00:00:00 Z) to 6/24/2019 (00:01:00 Z)
Previous Next [ Day | 3-Days | 7-Days ]
First Last
Prev [ Day | 3-Days | 7-Days ] Next
First Last

Start Time:     :
End Time:     :     
Time (in GMT) :00 :50 :40 :30 :20 :10
Previous Next [ Day | 3-Days | 7-Days ]
First Last
Prev [ Day | 3-Days | 7-Days ] Next
First Last


123 => good data
MM => data is determined as missing
-- => data not received/configured
Back to Top Back to Top
7/1/2019 00:00 to 23:10 86.76 85.39 85.65 87.23 86.76 87.00
6/30/2019 23:00 to 22:10 87.43 86.66 87.43 87.29 87.50 86.41
6/30/2019 22:00 to 21:10 86.68 86.94 87.25 87.00 86.80 86.57
6/30/2019 21:00 to 20:10 85.53 85.55 84.75 85.65 85.94 85.80
6/30/2019 20:00 to 19:10 84.49 85.28 86.39 87.04 87.37 87.74
6/30/2019 19:00 to 18:10 87.43 87.68 86.37 86.33 86.37 85.41
6/30/2019 18:00 to 17:10 85.65 85.78 86.18 86.14 85.65 85.20
6/30/2019 17:00 to 16:10 83.93 83.63 84.87 85.26 85.33 85.96
6/30/2019 16:00 to 15:10 85.96 86.04 85.82 86.76 87.64 88.56
6/30/2019 15:00 to 14:10 88.72 87.97 87.82 87.72 87.88 88.38
6/30/2019 14:00 to 13:10 87.54 88.75 88.58 88.97 89.93 90.36
6/30/2019 13:00 to 12:10 91.00 90.65 90.98 91.45 91.84 92.08
6/30/2019 12:00 to 11:10 91.94 93.11 93.33 93.27 93.11 93.66
6/30/2019 11:00 to 10:10 93.29 93.23 93.31 93.37 94.05 94.64
6/30/2019 10:00 to 9:10 95.40 95.03 95.28 95.46 95.46 95.19
6/30/2019 09:00 to 8:10 95.24 96.26 96.46 97.20 97.02 96.59
6/30/2019 08:00 to 7:10 95.58 94.89 95.01 94.34 94.44 93.02
6/30/2019 07:00 to 6:10 93.41 93.19 92.31 92.23 93.31 94.76
6/30/2019 06:00 to 5:10 94.95 94.19 94.87 95.89 97.57 98.12
6/30/2019 05:00 to 4:10 97.41 98.27 97.90 97.84 98.76 98.84
6/30/2019 04:00 to 3:10 98.59 97.71 96.57 95.19 83.11 83.03
6/30/2019 03:00 to 2:10 84.81 82.50 82.91 83.69 86.61 85.55
6/30/2019 02:00 to 1:10 84.28 84.28 85.28 89.07 88.66 88.44
6/30/2019 01:00 to 0:10 90.14 90.10 92.14 91.53 92.96 90.16
6/30/2019 00:00 to 23:10 85.28 85.30 86.88 81.74 80.94 81.97
6/29/2019 23:00 to 22:10 81.33 81.88 83.17 84.87 85.75 84.40
6/29/2019 22:00 to 21:10 88.17 90.75 89.54 90.06 89.58 89.61
6/29/2019 21:00 to 20:10 91.22 91.51 92.39 93.15 93.23 93.48
6/29/2019 20:00 to 19:10 94.05 94.07 94.52 95.85 96.01 97.18
6/29/2019 19:00 to 18:10 97.41 97.96 98.88 98.59 98.04 97.22
6/29/2019 18:00 to 17:10 97.94 98.00 97.24 96.69 96.05 90.03
6/29/2019 17:00 to 16:10 88.64 90.28 93.58 93.19 92.37 84.81
6/29/2019 16:00 to 15:10 84.83 84.73 84.10 84.81 85.53 85.78
6/29/2019 15:00 to 14:10 85.22 86.21 85.18 85.92 85.90 87.02
6/29/2019 14:00 to 13:10 86.98 83.61 85.96 84.12 85.67 88.83
6/29/2019 13:00 to 12:10 89.32 87.27 85.30 83.85 83.61 82.66
6/29/2019 12:00 to 11:10 83.85 84.04 83.81 85.33 84.81 85.45
6/29/2019 11:00 to 10:10 85.84 85.59 86.08 85.86 83.58 85.84
6/29/2019 10:00 to 9:10 85.06 83.73 83.99 83.58 84.81 84.57
6/29/2019 09:00 to 8:10 84.01 84.87 84.08 87.90 86.16 86.62
6/29/2019 08:00 to 7:10 86.16 85.67 84.38 86.19 87.19 87.68
6/29/2019 07:00 to 6:10 88.54 85.76 85.63 84.53 86.41 85.22
6/29/2019 06:00 to 5:10 89.97 91.37 91.55 91.10 92.33 91.53
6/29/2019 05:00 to 4:10 89.18 89.18 87.74 86.53 85.57 85.82
6/29/2019 04:00 to 3:10 86.55 85.61 85.55 87.23 88.85 87.90
6/29/2019 03:00 to 2:10 89.07 86.96 90.20 93.27 92.19 93.15
6/29/2019 02:00 to 1:10 94.31 96.06 96.63 98.25 98.57 97.47
6/29/2019 01:00 to 0:10 95.81 91.88 90.08 91.80 91.24 88.58
6/29/2019 00:00 to 23:10 89.54 90.16 88.66 88.31 89.38 88.13
6/28/2019 23:00 to 22:10 86.39 88.01 89.67 90.20 92.51 93.50
6/28/2019 22:00 to 21:10 92.23 92.14 91.94 91.20 92.94 94.21
6/28/2019 21:00 to 20:10 94.74 92.18 92.90 92.02 91.20 89.50
6/28/2019 20:00 to 19:10 89.46 87.05 88.01 89.56 91.14 95.07
6/28/2019 19:00 to 18:10 93.76 91.59 88.25 89.11 88.27 86.06
6/28/2019 18:00 to 17:10 89.50 85.90 88.91 91.28 90.20 90.06
6/28/2019 17:00 to 16:10 89.79 91.86 94.33 95.44 92.43 86.68
6/28/2019 16:00 to 15:10 84.75 88.07 85.96 85.12 84.46 87.25
6/28/2019 15:00 to 14:10 84.90 82.87 84.71 84.06 82.72 84.53
6/28/2019 14:00 to 13:10 83.38 84.67 83.20 83.05 84.57 82.95
6/28/2019 13:00 to 12:10 83.46 83.81 84.34 84.44 85.20 85.84
6/28/2019 12:00 to 11:10 86.12 86.94 85.55 84.16 85.10 86.96
6/28/2019 11:00 to 10:10 86.94 89.09 92.61 83.91 84.98 87.66
6/28/2019 10:00 to 9:10 86.12 86.06 90.67 86.84 88.97 87.25
6/28/2019 09:00 to 8:10 86.37 87.05 86.33 85.59 84.96 83.63
6/28/2019 08:00 to 7:10 85.37 85.24 85.02 83.87 84.01 83.20
6/28/2019 07:00 to 6:10 85.71 83.63 85.41 86.82 88.03 85.98
6/28/2019 06:00 to 5:10 87.02 87.00 86.86 88.89 85.55 87.86
6/28/2019 05:00 to 4:10 86.21 85.20 86.25 83.79 84.77 84.32
6/28/2019 04:00 to 3:10 85.43 86.47 85.75 85.78 84.55 85.35
6/28/2019 03:00 to 2:10 84.77 84.63 84.38 84.34 87.15 86.33
6/28/2019 02:00 to 1:10 87.35 87.78 87.50 88.11 89.18 87.84
6/28/2019 01:00 to 0:10 89.15 88.83 90.98 91.84 92.08 91.69
6/28/2019 00:00 to 23:10 90.63 90.38 91.14 91.00 91.22 91.30
6/27/2019 23:00 to 22:10 89.44 93.60 94.42 93.02 92.61 92.62
6/27/2019 22:00 to 21:10 93.54 94.48 93.17 93.80 94.15 95.36
6/27/2019 21:00 to 20:10 98.64 98.33 98.57 98.31 97.67 98.35
6/27/2019 20:00 to 19:10 97.94 98.04 98.47 98.33 97.22 97.80
6/27/2019 19:00 to 18:10 98.64 97.98 97.04 97.32 98.33 97.55
6/27/2019 18:00 to 17:10 98.61 98.94 98.16 98.63 98.72 98.08
6/27/2019 17:00 to 16:10 97.90 97.14 96.91 97.51 98.08 98.33
6/27/2019 16:00 to 15:10 98.82 99.04 99.41 99.48 99.47 99.47
6/27/2019 15:00 to 14:10 99.80 -- 99.45 98.39 99.58 99.60
6/27/2019 14:00 to 13:10 99.68 -- 99.84 98.78 98.49 98.29
6/27/2019 13:00 to 12:10 98.84 98.35 97.14 96.12 96.18 94.91
6/27/2019 12:00 to 11:10 93.21 93.02 93.25 93.21 93.11 93.19
6/27/2019 11:00 to 10:10 92.08 92.62 93.13 93.84 96.20 96.42
6/27/2019 10:00 to 9:10 95.79 96.05 94.25 90.08 91.26 91.88
6/27/2019 09:00 to 8:10 92.10 91.94 92.12 92.76 93.29 93.13
6/27/2019 08:00 to 7:10 92.43 91.14 89.44 89.85 87.13 86.96
6/27/2019 07:00 to 6:10 86.55 87.45 87.33 88.23 87.70 87.99
6/27/2019 06:00 to 5:10 89.22 89.73 89.95 90.22 93.25 94.77
6/27/2019 05:00 to 4:10 95.56 95.26 95.30 94.07 95.17 95.58
6/27/2019 04:00 to 3:10 95.42 94.79 93.99 94.40 94.56 93.64
6/27/2019 03:00 to 2:10 94.09 93.78 93.15 93.56 92.80 91.71
6/27/2019 02:00 to 1:10 90.85 92.12 89.56 90.77 90.94 90.77
6/27/2019 01:00 to 0:10 91.12 90.79 90.22 91.80 92.18 92.66
6/27/2019 00:00 to 23:10 93.17 92.18 89.81 89.58 88.91 89.01
6/26/2019 23:00 to 22:10 88.56 89.11 90.30 89.85 90.67 91.26
6/26/2019 22:00 to 21:10 90.67 91.37 90.87 92.18 93.04 91.82
6/26/2019 21:00 to 20:10 92.10 92.37 93.41 94.60 94.25 94.58
6/26/2019 20:00 to 19:10 94.68 95.20 94.83 93.35 94.79 94.95
6/26/2019 19:00 to 18:10 96.28 96.20 96.01 95.63 94.62 94.09
6/26/2019 18:00 to 17:10 93.56 92.78 90.67 89.83 91.39 91.30
6/26/2019 17:00 to 16:10 92.19 92.41 93.80 92.06 92.72 93.80
6/26/2019 16:00 to 15:10 93.64 92.90 92.86 93.72 94.52 95.40
6/26/2019 15:00 to 14:10 94.17 95.46 95.36 95.36 95.89 96.42
6/26/2019 14:00 to 13:10 96.67 96.81 96.51 97.00 96.20 96.42
6/26/2019 13:00 to 12:10 95.81 95.19 91.51 89.93 90.89 91.12
6/26/2019 12:00 to 11:10 91.84 90.44 88.23 87.86 87.74 85.82
6/26/2019 11:00 to 10:10 86.16 87.09 88.36 88.42 88.13 89.81
6/26/2019 10:00 to 9:10 90.16 89.36 87.45 87.05 87.00 86.61
6/26/2019 09:00 to 8:10 85.92 86.53 86.74 85.45 87.62 85.80
6/26/2019 08:00 to 7:10 83.93 84.87 84.63 85.02 85.55 84.98
6/26/2019 07:00 to 6:10 85.55 86.39 85.53 87.23 87.35 87.09
6/26/2019 06:00 to 5:10 87.05 86.53 87.29 86.98 86.29 85.43
6/26/2019 05:00 to 4:10 84.94 85.94 85.53 85.82 86.00 86.33
6/26/2019 04:00 to 3:10 86.68 88.48 88.40 87.93 88.03 88.36
6/26/2019 03:00 to 2:10 89.61 90.61 90.34 90.04 90.96 91.41
6/26/2019 02:00 to 1:10 84.53 85.84 86.33 86.25 86.62 87.00
6/26/2019 01:00 to 0:10 86.33 89.26 90.38 90.63 91.06 93.70
6/26/2019 00:00 to 23:10 91.69 92.27 83.77 81.74 81.88 81.64
6/25/2019 23:00 to 22:10 82.15 81.02 79.90 80.02 80.94 81.74
6/25/2019 22:00 to 21:10 79.98 80.45 80.96 81.11 80.29 80.74
6/25/2019 21:00 to 20:10 80.35 80.96 81.62 80.21 81.46 79.41
6/25/2019 20:00 to 19:10 79.31 79.55 80.02 81.78 79.67 80.39
6/25/2019 19:00 to 18:10 81.33 81.05 80.88 81.74 81.56 82.42
6/25/2019 18:00 to 17:10 82.64 83.44 82.01 83.40 82.89 83.01
6/25/2019 17:00 to 16:10 83.17 84.12 82.07 80.55 81.88 82.15
6/25/2019 16:00 to 15:10 81.35 81.58 81.76 82.17 81.45 82.19
6/25/2019 15:00 to 14:10 83.81 82.38 81.93 84.01 85.47 85.98
6/25/2019 14:00 to 13:10 84.92 84.46 84.85 85.20 81.89 82.17
6/25/2019 13:00 to 12:10 82.60 80.92 81.41 84.18 82.19 82.52
6/25/2019 12:00 to 11:10 82.56 83.95 84.28 84.10 83.24 83.46
6/25/2019 11:00 to 10:10 81.89 83.60 85.14 85.30 83.67 83.83
6/25/2019 10:00 to 9:10 83.71 83.58 84.44 83.93 84.40 82.52
6/25/2019 09:00 to 8:10 81.82 84.44 81.07 83.97 82.46 83.50
6/25/2019 08:00 to 7:10 83.81 84.61 84.34 83.77 81.74 82.21
6/25/2019 07:00 to 6:10 82.38 82.79 83.03 83.42 86.12 85.04
6/25/2019 06:00 to 5:10 83.54 81.11 81.09 81.37 82.70 82.60
6/25/2019 05:00 to 4:10 80.47 78.30 80.33 81.66 81.23 81.48
6/25/2019 04:00 to 3:10 80.84 82.03 81.89 80.06 80.47 79.30
6/25/2019 03:00 to 2:10 80.66 80.39 80.76 81.13 82.23 82.75
6/25/2019 02:00 to 1:10 83.77 85.92 83.11 84.40 84.53 83.46
6/25/2019 01:00 to 0:10 83.32 81.03 83.01 83.56 81.13 80.88
6/25/2019 00:00 to 23:10 81.00 81.64 82.97 82.66 85.06 83.75
6/24/2019 23:00 to 22:10 83.77 81.68 81.80 81.50 82.36 81.09
6/24/2019 22:00 to 21:10 81.19 80.47 83.30 82.64 81.88 82.68
6/24/2019 21:00 to 20:10 81.82 79.88 80.68 79.59 79.47 79.96
6/24/2019 20:00 to 19:10 78.98 80.19 79.65 79.04 79.59 80.16
6/24/2019 19:00 to 18:10 79.35 79.43 79.33 79.22 79.61 79.14
6/24/2019 18:00 to 17:10 78.71 78.28 79.41 78.88 80.17 82.79
6/24/2019 17:00 to 16:10 81.97 82.89 84.36 86.37 85.61 87.04
6/24/2019 16:00 to 15:10 87.90 88.34 86.90 83.71 81.25 80.45
6/24/2019 15:00 to 14:10 80.66 81.31 79.12 81.41 82.70 84.24
6/24/2019 14:00 to 13:10 84.65 83.50 82.13 82.40 81.56 82.48
6/24/2019 13:00 to 12:10 81.48 81.54 81.60 81.84 81.88 81.25
6/24/2019 12:00 to 11:10 82.15 80.41 80.66 79.74 81.00 81.17
6/24/2019 11:00 to 10:10 -- -- -- -- -- --
6/24/2019 10:00 to 9:10 -- -- -- -- -- --
6/24/2019 09:00 to 8:10 -- -- -- -- -- --
6/24/2019 08:00 to 7:10 -- -- -- -- -- --
6/24/2019 07:00 to 6:10 -- -- -- -- -- --
6/24/2019 06:00 to 5:10 -- -- -- -- -- --
6/24/2019 05:00 to 4:10 -- -- -- -- -- --
6/24/2019 04:00 to 3:10 -- -- -- -- -- --
6/24/2019 03:00 to 2:10 -- -- -- -- -- --
6/24/2019 02:00 to 1:10 -- -- -- -- -- --
6/24/2019 01:00 to 0:10 -- -- -- -- -- --